sensor_id;sensor_type;location;lat;lon;timestamp;P1;durP1;ratioP1;P2;durP2;ratioP2
20229;SDS011;12195;55.790;37.572;2023-12-29T00:00:10;4.08;;;1.75;;
20229;SDS011;12195;55.790;37.572;2023-12-29T00:02:43;1.67;;;1.10;;
20229;SDS011;12195;55.790;37.572;2023-12-29T00:05:16;2.80;;;1.70;;
20229;SDS011;12195;55.790;37.572;2023-12-29T00:07:49;3.67;;;2.10;;
20229;SDS011;12195;55.790;37.572;2023-12-29T00:10:21;3.87;;;2.00;;
20229;SDS011;12195;55.790;37.572;2023-12-29T00:12:55;3.25;;;1.98;;
20229;SDS011;12195;55.790;37.572;2023-12-29T00:15:28;3.60;;;2.00;;
20229;SDS011;12195;55.790;37.572;2023-12-29T00:18:01;5.87;;;2.30;;
20229;SDS011;12195;55.790;37.572;2023-12-29T00:20:34;2.20;;;1.60;;
20229;SDS011;12195;55.790;37.572;2023-12-29T00:23:09;3.30;;;1.80;;
20229;SDS011;12195;55.790;37.572;2023-12-29T00:25:42;4.22;;;2.15;;
20229;SDS011;12195;55.790;37.572;2023-12-29T00:28:14;2.00;;;1.47;;
20229;SDS011;12195;55.790;37.572;2023-12-29T00:30:48;3.47;;;1.87;;
20229;SDS011;12195;55.790;37.572;2023-12-29T00:33:22;2.70;;;1.57;;
20229;SDS011;12195;55.790;37.572;2023-12-29T00:35:55;3.00;;;1.85;;
20229;SDS011;12195;55.790;37.572;2023-12-29T00:38:28;1.85;;;1.47;;
20229;SDS011;12195;55.790;37.572;2023-12-29T00:41:01;3.90;;;1.87;;
20229;SDS011;12195;55.790;37.572;2023-12-29T00:43:36;2.12;;;1.67;;
20229;SDS011;12195;55.790;37.572;2023-12-29T00:46:09;4.08;;;1.70;;
20229;SDS011;12195;55.790;37.572;2023-12-29T00:48:43;3.35;;;1.72;;
20229;SDS011;12195;55.790;37.572;2023-12-29T00:51:16;2.17;;;1.70;;
20229;SDS011;12195;55.790;37.572;2023-12-29T00:53:48;2.05;;;1.35;;
20229;SDS011;12195;55.790;37.572;2023-12-29T00:56:21;2.52;;;1.42;;
20229;SDS011;12195;55.790;37.572;2023-12-29T00:58:54;3.37;;;1.80;;
20229;SDS011;12195;55.790;37.572;2023-12-29T01:01:27;2.83;;;1.50;;
20229;SDS011;12195;55.790;37.572;2023-12-29T01:04:01;2.37;;;1.57;;
20229;SDS011;12195;55.790;37.572;2023-12-29T01:06:35;2.33;;;1.50;;
20229;SDS011;12195;55.790;37.572;2023-12-29T01:09:08;2.12;;;1.65;;
20229;SDS011;12195;55.790;37.572;2023-12-29T01:11:42;2.52;;;1.85;;
20229;SDS011;12195;55.790;37.572;2023-12-29T01:14:15;2.85;;;1.85;;
20229;SDS011;12195;55.790;37.572;2023-12-29T01:16:48;2.12;;;1.60;;
20229;SDS011;12195;55.790;37.572;2023-12-29T01:19:20;2.92;;;1.85;;
20229;SDS011;12195;55.790;37.572;2023-12-29T01:21:53;3.17;;;1.62;;
20229;SDS011;12195;55.790;37.572;2023-12-29T01:24:26;2.55;;;1.70;;
20229;SDS011;12195;55.790;37.572;2023-12-29T01:27:00;3.08;;;1.77;;
20229;SDS011;12195;55.790;37.572;2023-12-29T01:29:34;2.05;;;1.60;;
20229;SDS011;12195;55.790;37.572;2023-12-29T01:32:09;2.50;;;1.70;;
20229;SDS011;12195;55.790;37.572;2023-12-29T01:34:42;3.40;;;1.80;;
20229;SDS011;12195;55.790;37.572;2023-12-29T01:37:14;3.77;;;1.70;;
20229;SDS011;12195;55.790;37.572;2023-12-29T01:39:47;4.03;;;1.80;;
20229;SDS011;12195;55.790;37.572;2023-12-29T01:42:20;2.90;;;1.47;;
20229;SDS011;12195;55.790;37.572;2023-12-29T01:44:52;2.95;;;1.92;;
20229;SDS011;12195;55.790;37.572;2023-12-29T01:47:25;5.12;;;2.00;;
20229;SDS011;12195;55.790;37.572;2023-12-29T01:49:59;3.27;;;1.90;;
20229;SDS011;12195;55.790;37.572;2023-12-29T01:52:32;2.72;;;1.62;;
20229;SDS011;12195;55.790;37.572;2023-12-29T01:55:05;3.75;;;2.20;;
20229;SDS011;12195;55.790;37.572;2023-12-29T01:57:40;4.92;;;1.90;;
20229;SDS011;12195;55.790;37.572;2023-12-29T02:00:14;2.62;;;1.75;;
20229;SDS011;12195;55.790;37.572;2023-12-29T02:02:48;2.85;;;1.80;;
20229;SDS011;12195;55.790;37.572;2023-12-29T02:05:22;3.42;;;1.90;;
20229;SDS011;12195;55.790;37.572;2023-12-29T02:07:57;4.92;;;2.00;;
20229;SDS011;12195;55.790;37.572;2023-12-29T02:10:33;2.67;;;1.77;;
20229;SDS011;12195;55.790;37.572;2023-12-29T02:13:07;5.40;;;1.72;;
20229;SDS011;12195;55.790;37.572;2023-12-29T02:15:40;2.60;;;1.60;;
20229;SDS011;12195;55.790;37.572;2023-12-29T02:18:14;3.02;;;1.77;;
20229;SDS011;12195;55.790;37.572;2023-12-29T02:20:48;2.72;;;1.87;;
20229;SDS011;12195;55.790;37.572;2023-12-29T02:23:21;2.50;;;1.67;;
20229;SDS011;12195;55.790;37.572;2023-12-29T02:25:54;3.17;;;1.90;;
20229;SDS011;12195;55.790;37.572;2023-12-29T02:28:29;3.17;;;2.33;;
20229;SDS011;12195;55.790;37.572;2023-12-29T02:31:06;2.90;;;1.85;;
20229;SDS011;12195;55.790;37.572;2023-12-29T02:33:43;5.17;;;1.85;;
20229;SDS011;12195;55.790;37.572;2023-12-29T02:36:19;3.20;;;1.67;;
20229;SDS011;12195;55.790;37.572;2023-12-29T02:38:54;4.22;;;1.98;;
20229;SDS011;12195;55.790;37.572;2023-12-29T02:41:28;3.65;;;2.08;;
20229;SDS011;12195;55.790;37.572;2023-12-29T02:44:01;3.47;;;1.75;;
20229;SDS011;12195;55.790;37.572;2023-12-29T02:46:34;4.23;;;1.90;;
20229;SDS011;12195;55.790;37.572;2023-12-29T02:49:07;2.60;;;1.85;;
20229;SDS011;12195;55.790;37.572;2023-12-29T02:51:42;2.50;;;1.70;;
20229;SDS011;12195;55.790;37.572;2023-12-29T02:54:18;4.92;;;1.82;;
20229;SDS011;12195;55.790;37.572;2023-12-29T02:56:51;2.77;;;2.10;;
20229;SDS011;12195;55.790;37.572;2023-12-29T02:59:24;4.22;;;1.65;;
20229;SDS011;12195;55.790;37.572;2023-12-29T03:01:57;3.58;;;1.87;;
20229;SDS011;12195;55.790;37.572;2023-12-29T03:04:30;4.83;;;1.60;;
20229;SDS011;12195;55.790;37.572;2023-12-29T03:07:03;3.77;;;1.57;;
20229;SDS011;12195;55.790;37.572;2023-12-29T03:09:36;3.57;;;1.97;;
20229;SDS011;12195;55.790;37.572;2023-12-29T03:12:08;3.35;;;1.70;;
20229;SDS011;12195;55.790;37.572;2023-12-29T03:14:41;4.33;;;2.08;;
20229;SDS011;12195;55.790;37.572;2023-12-29T03:17:15;3.05;;;1.62;;
20229;SDS011;12195;55.790;37.572;2023-12-29T03:19:48;2.50;;;1.77;;
20229;SDS011;12195;55.790;37.572;2023-12-29T03:22:21;5.25;;;1.98;;
20229;SDS011;12195;55.790;37.572;2023-12-29T03:24:54;8.10;;;2.12;;
20229;SDS011;12195;55.790;37.572;2023-12-29T03:27:29;3.87;;;1.70;;
20229;SDS011;12195;55.790;37.572;2023-12-29T03:30:02;2.77;;;1.70;;
20229;SDS011;12195;55.790;37.572;2023-12-29T03:32:35;4.50;;;2.08;;
20229;SDS011;12195;55.790;37.572;2023-12-29T03:35:08;4.37;;;2.10;;
20229;SDS011;12195;55.790;37.572;2023-12-29T03:37:41;3.02;;;1.90;;
20229;SDS011;12195;55.790;37.572;2023-12-29T03:42:47;4.60;;;2.30;;
20229;SDS011;12195;55.790;37.572;2023-12-29T03:45:20;5.62;;;2.47;;
20229;SDS011;12195;55.790;37.572;2023-12-29T03:47:52;4.65;;;2.00;;
20229;SDS011;12195;55.790;37.572;2023-12-29T03:50:25;4.75;;;2.05;;
20229;SDS011;12195;55.790;37.572;2023-12-29T03:52:59;2.12;;;1.37;;
20229;SDS011;12195;55.790;37.572;2023-12-29T03:55:32;3.40;;;2.17;;
20229;SDS011;12195;55.790;37.572;2023-12-29T03:58:04;2.10;;;1.50;;
20229;SDS011;12195;55.790;37.572;2023-12-29T04:00:38;5.12;;;2.00;;
20229;SDS011;12195;55.790;37.572;2023-12-29T04:03:13;3.65;;;2.05;;
20229;SDS011;12195;55.790;37.572;2023-12-29T04:05:46;3.02;;;1.92;;
20229;SDS011;12195;55.790;37.572;2023-12-29T04:08:20;4.30;;;2.00;;
20229;SDS011;12195;55.790;37.572;2023-12-29T04:10:53;3.62;;;2.42;;
20229;SDS011;12195;55.790;37.572;2023-12-29T04:13:27;6.15;;;2.05;;
20229;SDS011;12195;55.790;37.572;2023-12-29T04:15:59;3.55;;;2.20;;
20229;SDS011;12195;55.790;37.572;2023-12-29T04:18:32;3.98;;;1.95;;
20229;SDS011;12195;55.790;37.572;2023-12-29T04:21:06;7.42;;;2.65;;
20229;SDS011;12195;55.790;37.572;2023-12-29T04:23:40;3.67;;;2.05;;
20229;SDS011;12195;55.790;37.572;2023-12-29T04:28:46;10.48;;;2.42;;
20229;SDS011;12195;55.790;37.572;2023-12-29T04:31:20;4.08;;;2.33;;
20229;SDS011;12195;55.790;37.572;2023-12-29T04:33:54;4.55;;;2.05;;
20229;SDS011;12195;55.790;37.572;2023-12-29T04:36:29;5.35;;;2.27;;
20229;SDS011;12195;55.790;37.572;2023-12-29T04:39:02;7.03;;;2.08;;
20229;SDS011;12195;55.790;37.572;2023-12-29T04:41:37;7.12;;;2.90;;
20229;SDS011;12195;55.790;37.572;2023-12-29T04:44:10;5.50;;;2.65;;
20229;SDS011;12195;55.790;37.572;2023-12-29T04:46:44;16.73;;;3.17;;
20229;SDS011;12195;55.790;37.572;2023-12-29T04:49:17;7.90;;;2.60;;
20229;SDS011;12195;55.790;37.572;2023-12-29T04:51:50;6.35;;;2.95;;
20229;SDS011;12195;55.790;37.572;2023-12-29T04:54:25;13.88;;;3.90;;
20229;SDS011;12195;55.790;37.572;2023-12-29T04:56:58;11.85;;;3.30;;
20229;SDS011;12195;55.790;37.572;2023-12-29T04:59:32;4.35;;;2.62;;
20229;SDS011;12195;55.790;37.572;2023-12-29T05:02:07;13.35;;;3.45;;
20229;SDS011;12195;55.790;37.572;2023-12-29T05:04:40;9.50;;;3.20;;
20229;SDS011;12195;55.790;37.572;2023-12-29T05:07:15;5.83;;;2.55;;
20229;SDS011;12195;55.790;37.572;2023-12-29T05:09:48;6.15;;;2.52;;
20229;SDS011;12195;55.790;37.572;2023-12-29T05:12:21;9.93;;;2.85;;
20229;SDS011;12195;55.790;37.572;2023-12-29T05:14:56;8.48;;;2.87;;
20229;SDS011;12195;55.790;37.572;2023-12-29T05:17:31;14.38;;;3.87;;
20229;SDS011;12195;55.790;37.572;2023-12-29T05:22:39;8.20;;;2.72;;
20229;SDS011;12195;55.790;37.572;2023-12-29T05:25:14;11.75;;;3.40;;
20229;SDS011;12195;55.790;37.572;2023-12-29T05:27:47;12.73;;;3.45;;
20229;SDS011;12195;55.790;37.572;2023-12-29T05:30:21;9.25;;;3.35;;
20229;SDS011;12195;55.790;37.572;2023-12-29T05:32:54;9.85;;;3.05;;
20229;SDS011;12195;55.790;37.572;2023-12-29T05:35:29;9.93;;;3.47;;
20229;SDS011;12195;55.790;37.572;2023-12-29T05:38:03;10.88;;;4.25;;
20229;SDS011;12195;55.790;37.572;2023-12-29T05:40:36;11.05;;;3.72;;
20229;SDS011;12195;55.790;37.572;2023-12-29T05:43:11;25.50;;;4.20;;
20229;SDS011;12195;55.790;37.572;2023-12-29T05:45:44;16.30;;;4.25;;
20229;SDS011;12195;55.790;37.572;2023-12-29T05:48:18;23.27;;;4.30;;
20229;SDS011;12195;55.790;37.572;2023-12-29T05:50:52;8.43;;;3.17;;
20229;SDS011;12195;55.790;37.572;2023-12-29T05:53:25;11.55;;;3.75;;
20229;SDS011;12195;55.790;37.572;2023-12-29T05:55:58;17.05;;;3.70;;
20229;SDS011;12195;55.790;37.572;2023-12-29T05:58:33;12.13;;;3.85;;
20229;SDS011;12195;55.790;37.572;2023-12-29T06:01:09;17.37;;;4.40;;
20229;SDS011;12195;55.790;37.572;2023-12-29T06:03:43;5.65;;;3.12;;
20229;SDS011;12195;55.790;37.572;2023-12-29T06:06:15;10.15;;;3.45;;
20229;SDS011;12195;55.790;37.572;2023-12-29T06:08:49;18.70;;;4.22;;
20229;SDS011;12195;55.790;37.572;2023-12-29T06:11:22;15.72;;;4.37;;
20229;SDS011;12195;55.790;37.572;2023-12-29T06:13:56;19.52;;;4.08;;
20229;SDS011;12195;55.790;37.572;2023-12-29T06:16:30;21.60;;;4.37;;
20229;SDS011;12195;55.790;37.572;2023-12-29T06:19:04;21.05;;;5.05;;
20229;SDS011;12195;55.790;37.572;2023-12-29T06:21:46;9.05;;;3.30;;
20229;SDS011;12195;55.790;37.572;2023-12-29T06:24:21;12.47;;;4.40;;
20229;SDS011;12195;55.790;37.572;2023-12-29T06:26:57;9.18;;;3.02;;
20229;SDS011;12195;55.790;37.572;2023-12-29T06:29:31;10.85;;;3.90;;
20229;SDS011;12195;55.790;37.572;2023-12-29T06:32:04;13.03;;;4.40;;
20229;SDS011;12195;55.790;37.572;2023-12-29T06:34:40;11.15;;;4.10;;
20229;SDS011;12195;55.790;37.572;2023-12-29T06:37:13;10.90;;;3.70;;
20229;SDS011;12195;55.790;37.572;2023-12-29T06:39:46;10.13;;;4.07;;
20229;SDS011;12195;55.790;37.572;2023-12-29T06:42:21;9.35;;;4.00;;
20229;SDS011;12195;55.790;37.572;2023-12-29T06:44:54;11.12;;;5.42;;
20229;SDS011;12195;55.790;37.572;2023-12-29T06:47:31;7.87;;;3.90;;
20229;SDS011;12195;55.790;37.572;2023-12-29T06:50:04;7.95;;;3.83;;
20229;SDS011;12195;55.790;37.572;2023-12-29T06:52:40;7.42;;;3.52;;
20229;SDS011;12195;55.790;37.572;2023-12-29T06:57:46;28.80;;;4.55;;
20229;SDS011;12195;55.790;37.572;2023-12-29T07:00:19;15.28;;;4.03;;
20229;SDS011;12195;55.790;37.572;2023-12-29T07:02:53;8.03;;;3.65;;
20229;SDS011;12195;55.790;37.572;2023-12-29T07:07:59;18.12;;;4.28;;
20229;SDS011;12195;55.790;37.572;2023-12-29T07:10:34;15.63;;;3.55;;
20229;SDS011;12195;55.790;37.572;2023-12-29T07:13:07;11.12;;;4.08;;
20229;SDS011;12195;55.790;37.572;2023-12-29T07:15:42;9.58;;;4.00;;
20229;SDS011;12195;55.790;37.572;2023-12-29T07:18:19;7.33;;;3.30;;
20229;SDS011;12195;55.790;37.572;2023-12-29T07:20:52;6.53;;;4.17;;
20229;SDS011;12195;55.790;37.572;2023-12-29T07:23:25;8.78;;;4.20;;
20229;SDS011;12195;55.790;37.572;2023-12-29T07:26:01;11.03;;;3.90;;
20229;SDS011;12195;55.790;37.572;2023-12-29T07:28:35;13.98;;;3.95;;
20229;SDS011;12195;55.790;37.572;2023-12-29T07:31:09;8.40;;;4.00;;
20229;SDS011;12195;55.790;37.572;2023-12-29T07:33:42;8.65;;;4.12;;
20229;SDS011;12195;55.790;37.572;2023-12-29T07:36:17;10.58;;;4.72;;
20229;SDS011;12195;55.790;37.572;2023-12-29T07:38:52;13.93;;;5.28;;
20229;SDS011;12195;55.790;37.572;2023-12-29T07:41:28;8.98;;;3.83;;
20229;SDS011;12195;55.790;37.572;2023-12-29T07:44:04;11.08;;;4.00;;
20229;SDS011;12195;55.790;37.572;2023-12-29T07:46:38;14.58;;;5.37;;
20229;SDS011;12195;55.790;37.572;2023-12-29T07:49:14;9.45;;;4.12;;
20229;SDS011;12195;55.790;37.572;2023-12-29T07:51:48;9.65;;;4.40;;
20229;SDS011;12195;55.790;37.572;2023-12-29T07:54:22;13.50;;;4.17;;
20229;SDS011;12195;55.790;37.572;2023-12-29T07:56:55;9.33;;;3.75;;
20229;SDS011;12195;55.790;37.572;2023-12-29T08:02:01;11.53;;;3.67;;
20229;SDS011;12195;55.790;37.572;2023-12-29T08:04:33;11.10;;;4.50;;
20229;SDS011;12195;55.790;37.572;2023-12-29T08:07:07;11.38;;;3.70;;
20229;SDS011;12195;55.790;37.572;2023-12-29T08:09:41;8.58;;;4.35;;
20229;SDS011;12195;55.790;37.572;2023-12-29T08:12:15;17.05;;;4.42;;
20229;SDS011;12195;55.790;37.572;2023-12-29T08:14:49;7.85;;;4.25;;
20229;SDS011;12195;55.790;37.572;2023-12-29T08:17:22;13.88;;;4.50;;
20229;SDS011;12195;55.790;37.572;2023-12-29T08:19:59;14.85;;;4.55;;
20229;SDS011;12195;55.790;37.572;2023-12-29T08:22:32;21.77;;;4.23;;
20229;SDS011;12195;55.790;37.572;2023-12-29T08:25:06;15.95;;;5.17;;
20229;SDS011;12195;55.790;37.572;2023-12-29T08:30:12;8.48;;;4.00;;
20229;SDS011;12195;55.790;37.572;2023-12-29T08:32:47;11.03;;;4.20;;
20229;SDS011;12195;55.790;37.572;2023-12-29T08:35:21;11.15;;;4.55;;
20229;SDS011;12195;55.790;37.572;2023-12-29T08:37:54;10.67;;;3.77;;
20229;SDS011;12195;55.790;37.572;2023-12-29T08:40:28;8.23;;;4.25;;
20229;SDS011;12195;55.790;37.572;2023-12-29T08:43:01;9.78;;;4.35;;
20229;SDS011;12195;55.790;37.572;2023-12-29T08:45:34;8.73;;;3.58;;
20229;SDS011;12195;55.790;37.572;2023-12-29T08:48:08;10.38;;;3.70;;
20229;SDS011;12195;55.790;37.572;2023-12-29T08:50:41;20.37;;;5.63;;
20229;SDS011;12195;55.790;37.572;2023-12-29T08:53:16;8.88;;;3.98;;
20229;SDS011;12195;55.790;37.572;2023-12-29T08:58:22;7.87;;;4.00;;
20229;SDS011;12195;55.790;37.572;2023-12-29T09:00:56;9.68;;;4.37;;
20229;SDS011;12195;55.790;37.572;2023-12-29T09:03:29;11.90;;;4.50;;
20229;SDS011;12195;55.790;37.572;2023-12-29T09:06:03;17.07;;;4.97;;
20229;SDS011;12195;55.790;37.572;2023-12-29T09:08:39;9.85;;;3.95;;
20229;SDS011;12195;55.790;37.572;2023-12-29T09:13:47;8.18;;;3.95;;
20229;SDS011;12195;55.790;37.572;2023-12-29T09:16:20;12.07;;;4.00;;
20229;SDS011;12195;55.790;37.572;2023-12-29T09:21:27;9.05;;;4.40;;
20229;SDS011;12195;55.790;37.572;2023-12-29T09:24:01;14.95;;;4.30;;
20229;SDS011;12195;55.790;37.572;2023-12-29T09:26:35;5.78;;;4.00;;
20229;SDS011;12195;55.790;37.572;2023-12-29T09:29:08;5.50;;;2.50;;
20229;SDS011;12195;55.790;37.572;2023-12-29T09:31:41;8.10;;;4.12;;
20229;SDS011;12195;55.790;37.572;2023-12-29T09:34:19;7.70;;;4.00;;
20229;SDS011;12195;55.790;37.572;2023-12-29T09:36:53;9.85;;;3.95;;
20229;SDS011;12195;55.790;37.572;2023-12-29T09:39:26;8.80;;;4.08;;
20229;SDS011;12195;55.790;37.572;2023-12-29T09:42:00;8.90;;;4.45;;
20229;SDS011;12195;55.790;37.572;2023-12-29T09:44:37;7.22;;;4.03;;
20229;SDS011;12195;55.790;37.572;2023-12-29T09:47:12;7.70;;;3.90;;
20229;SDS011;12195;55.790;37.572;2023-12-29T09:49:49;8.25;;;4.45;;
20229;SDS011;12195;55.790;37.572;2023-12-29T09:52:26;12.45;;;6.08;;
20229;SDS011;12195;55.790;37.572;2023-12-29T09:57:33;9.53;;;3.67;;
20229;SDS011;12195;55.790;37.572;2023-12-29T10:00:10;11.12;;;4.42;;
20229;SDS011;12195;55.790;37.572;2023-12-29T10:02:44;7.90;;;4.20;;
20229;SDS011;12195;55.790;37.572;2023-12-29T10:05:17;14.70;;;5.58;;
20229;SDS011;12195;55.790;37.572;2023-12-29T10:07:51;29.85;;;7.22;;
20229;SDS011;12195;55.790;37.572;2023-12-29T10:10:26;5.42;;;3.42;;
20229;SDS011;12195;55.790;37.572;2023-12-29T10:13:04;12.40;;;4.75;;
20229;SDS011;12195;55.790;37.572;2023-12-29T10:15:49;11.50;;;4.03;;
20229;SDS011;12195;55.790;37.572;2023-12-29T10:21:22;5.65;;;3.17;;
20229;SDS011;12195;55.790;37.572;2023-12-29T10:26:39;11.15;;;4.22;;
20229;SDS011;12195;55.790;37.572;2023-12-29T10:29:15;7.03;;;4.25;;
20229;SDS011;12195;55.790;37.572;2023-12-29T10:31:52;9.73;;;4.75;;
20229;SDS011;12195;55.790;37.572;2023-12-29T10:34:26;7.15;;;4.58;;
20229;SDS011;12195;55.790;37.572;2023-12-29T10:37:03;12.33;;;3.87;;
20229;SDS011;12195;55.790;37.572;2023-12-29T10:39:39;8.00;;;3.80;;
20229;SDS011;12195;55.790;37.572;2023-12-29T10:42:16;14.07;;;4.65;;
20229;SDS011;12195;55.790;37.572;2023-12-29T10:44:53;13.05;;;4.10;;
20229;SDS011;12195;55.790;37.572;2023-12-29T10:47:43;7.37;;;3.80;;
20229;SDS011;12195;55.790;37.572;2023-12-29T10:50:16;9.00;;;4.03;;
20229;SDS011;12195;55.790;37.572;2023-12-29T10:52:49;6.43;;;3.83;;
20229;SDS011;12195;55.790;37.572;2023-12-29T10:55:23;6.42;;;3.60;;
20229;SDS011;12195;55.790;37.572;2023-12-29T10:57:59;9.68;;;4.08;;
20229;SDS011;12195;55.790;37.572;2023-12-29T11:00:34;9.55;;;3.77;;
20229;SDS011;12195;55.790;37.572;2023-12-29T11:03:15;18.15;;;4.65;;
20229;SDS011;12195;55.790;37.572;2023-12-29T11:05:48;8.23;;;3.87;;
20229;SDS011;12195;55.790;37.572;2023-12-29T11:08:24;6.08;;;2.47;;
20229;SDS011;12195;55.790;37.572;2023-12-29T11:10:57;9.15;;;4.12;;
20229;SDS011;12195;55.790;37.572;2023-12-29T11:13:31;6.30;;;3.77;;
20229;SDS011;12195;55.790;37.572;2023-12-29T11:16:05;10.85;;;3.65;;
20229;SDS011;12195;55.790;37.572;2023-12-29T11:18:42;12.33;;;5.10;;
20229;SDS011;12195;55.790;37.572;2023-12-29T11:21:19;13.13;;;4.75;;
20229;SDS011;12195;55.790;37.572;2023-12-29T11:23:58;7.17;;;4.58;;
20229;SDS011;12195;55.790;37.572;2023-12-29T11:26:31;6.28;;;3.60;;
20229;SDS011;12195;55.790;37.572;2023-12-29T11:29:05;21.57;;;6.72;;
20229;SDS011;12195;55.790;37.572;2023-12-29T11:31:40;6.05;;;4.03;;
20229;SDS011;12195;55.790;37.572;2023-12-29T11:35:02;6.42;;;3.47;;
20229;SDS011;12195;55.790;37.572;2023-12-29T11:36:57;6.05;;;3.45;;
20229;SDS011;12195;55.790;37.572;2023-12-29T11:42:27;11.28;;;4.12;;
20229;SDS011;12195;55.790;37.572;2023-12-29T11:45:25;8.53;;;3.67;;
20229;SDS011;12195;55.790;37.572;2023-12-29T11:47:55;7.20;;;3.33;;
20229;SDS011;12195;55.790;37.572;2023-12-29T11:50:31;9.90;;;3.55;;
20229;SDS011;12195;55.790;37.572;2023-12-29T11:53:07;6.55;;;3.65;;
20229;SDS011;12195;55.790;37.572;2023-12-29T11:55:43;9.25;;;3.95;;
20229;SDS011;12195;55.790;37.572;2023-12-29T11:58:24;8.48;;;4.20;;
20229;SDS011;12195;55.790;37.572;2023-12-29T12:01:00;6.83;;;3.52;;
20229;SDS011;12195;55.790;37.572;2023-12-29T12:03:35;14.70;;;4.95;;
20229;SDS011;12195;55.790;37.572;2023-12-29T12:06:10;7.83;;;3.20;;
20229;SDS011;12195;55.790;37.572;2023-12-29T12:11:56;7.90;;;4.25;;
20229;SDS011;12195;55.790;37.572;2023-12-29T12:14:47;11.03;;;4.10;;
20229;SDS011;12195;55.790;37.572;2023-12-29T12:17:34;7.42;;;3.65;;
20229;SDS011;12195;55.790;37.572;2023-12-29T12:20:09;7.10;;;3.95;;
20229;SDS011;12195;55.790;37.572;2023-12-29T12:22:43;5.22;;;3.92;;
20229;SDS011;12195;55.790;37.572;2023-12-29T12:25:18;7.35;;;4.25;;
20229;SDS011;12195;55.790;37.572;2023-12-29T12:27:52;5.40;;;3.35;;
20229;SDS011;12195;55.790;37.572;2023-12-29T12:30:28;9.73;;;4.25;;
20229;SDS011;12195;55.790;37.572;2023-12-29T12:33:04;7.17;;;3.15;;
20229;SDS011;12195;55.790;37.572;2023-12-29T12:35:38;9.03;;;4.58;;
20229;SDS011;12195;55.790;37.572;2023-12-29T12:38:12;10.50;;;4.22;;
20229;SDS011;12195;55.790;37.572;2023-12-29T12:40:47;8.63;;;3.45;;
20229;SDS011;12195;55.790;37.572;2023-12-29T12:43:21;6.08;;;3.58;;
20229;SDS011;12195;55.790;37.572;2023-12-29T12:45:59;5.33;;;3.70;;
20229;SDS011;12195;55.790;37.572;2023-12-29T12:48:39;4.10;;;2.67;;
20229;SDS011;12195;55.790;37.572;2023-12-29T12:51:15;4.03;;;3.02;;
20229;SDS011;12195;55.790;37.572;2023-12-29T12:53:51;7.45;;;3.35;;
20229;SDS011;12195;55.790;37.572;2023-12-29T12:56:25;4.35;;;2.75;;
20229;SDS011;12195;55.790;37.572;2023-12-29T12:59:01;6.55;;;3.87;;
20229;SDS011;12195;55.790;37.572;2023-12-29T13:01:36;8.88;;;4.30;;
20229;SDS011;12195;55.790;37.572;2023-12-29T13:04:11;5.83;;;3.95;;
20229;SDS011;12195;55.790;37.572;2023-12-29T13:06:46;5.12;;;3.35;;
20229;SDS011;12195;55.790;37.572;2023-12-29T13:09:22;7.30;;;4.10;;
20229;SDS011;12195;55.790;37.572;2023-12-29T13:12:07;7.90;;;4.22;;
20229;SDS011;12195;55.790;37.572;2023-12-29T13:14:47;5.03;;;2.70;;
20229;SDS011;12195;55.790;37.572;2023-12-29T13:17:24;3.10;;;1.85;;
20229;SDS011;12195;55.790;37.572;2023-12-29T13:19:59;4.17;;;2.35;;
20229;SDS011;12195;55.790;37.572;2023-12-29T13:22:36;7.67;;;4.53;;
20229;SDS011;12195;55.790;37.572;2023-12-29T13:25:09;8.93;;;4.08;;
20229;SDS011;12195;55.790;37.572;2023-12-29T13:27:44;7.72;;;4.25;;
20229;SDS011;12195;55.790;37.572;2023-12-29T13:32:51;9.60;;;4.33;;
20229;SDS011;12195;55.790;37.572;2023-12-29T13:35:31;6.00;;;3.55;;
20229;SDS011;12195;55.790;37.572;2023-12-29T13:38:11;5.87;;;4.10;;
20229;SDS011;12195;55.790;37.572;2023-12-29T13:43:37;5.87;;;4.10;;
20229;SDS011;12195;55.790;37.572;2023-12-29T13:46:14;9.63;;;4.87;;
20229;SDS011;12195;55.790;37.572;2023-12-29T13:48:52;7.53;;;4.60;;
20229;SDS011;12195;55.790;37.572;2023-12-29T13:51:27;6.62;;;4.05;;
20229;SDS011;12195;55.790;37.572;2023-12-29T13:54:02;8.43;;;4.92;;
20229;SDS011;12195;55.790;37.572;2023-12-29T13:56:37;8.98;;;4.00;;
20229;SDS011;12195;55.790;37.572;2023-12-29T13:59:10;8.68;;;4.40;;
20229;SDS011;12195;55.790;37.572;2023-12-29T14:01:44;7.33;;;4.62;;
20229;SDS011;12195;55.790;37.572;2023-12-29T14:04:19;10.53;;;5.35;;
20229;SDS011;12195;55.790;37.572;2023-12-29T14:06:54;8.43;;;4.45;;
20229;SDS011;12195;55.790;37.572;2023-12-29T14:09:35;11.85;;;4.42;;
20229;SDS011;12195;55.790;37.572;2023-12-29T14:12:08;8.10;;;4.12;;
20229;SDS011;12195;55.790;37.572;2023-12-29T14:14:43;5.80;;;3.98;;
20229;SDS011;12195;55.790;37.572;2023-12-29T14:17:22;7.05;;;4.10;;
20229;SDS011;12195;55.790;37.572;2023-12-29T14:19:56;9.80;;;5.65;;
20229;SDS011;12195;55.790;37.572;2023-12-29T14:22:32;7.95;;;4.85;;
20229;SDS011;12195;55.790;37.572;2023-12-29T14:25:07;12.95;;;5.67;;
20229;SDS011;12195;55.790;37.572;2023-12-29T14:27:51;8.10;;;4.45;;
20229;SDS011;12195;55.790;37.572;2023-12-29T14:30:21;11.53;;;5.95;;
20229;SDS011;12195;55.790;37.572;2023-12-29T14:32:55;3.37;;;1.92;;
20229;SDS011;12195;55.790;37.572;2023-12-29T14:35:32;9.58;;;5.28;;
20229;SDS011;12195;55.790;37.572;2023-12-29T14:40:40;9.63;;;4.83;;
20229;SDS011;12195;55.790;37.572;2023-12-29T14:43:13;8.98;;;5.47;;
20229;SDS011;12195;55.790;37.572;2023-12-29T14:45:47;6.45;;;3.25;;
20229;SDS011;12195;55.790;37.572;2023-12-29T14:48:20;10.60;;;5.83;;
20229;SDS011;12195;55.790;37.572;2023-12-29T14:50:55;15.60;;;6.75;;
20229;SDS011;12195;55.790;37.572;2023-12-29T14:53:30;11.00;;;5.80;;
20229;SDS011;12195;55.790;37.572;2023-12-29T14:56:05;10.93;;;5.53;;
20229;SDS011;12195;55.790;37.572;2023-12-29T15:01:14;7.47;;;3.92;;
20229;SDS011;12195;55.790;37.572;2023-12-29T15:03:49;11.25;;;6.00;;
20229;SDS011;12195;55.790;37.572;2023-12-29T15:06:23;12.68;;;6.35;;
20229;SDS011;12195;55.790;37.572;2023-12-29T15:08:56;11.20;;;5.05;;
20229;SDS011;12195;55.790;37.572;2023-12-29T15:11:29;10.70;;;4.70;;
20229;SDS011;12195;55.790;37.572;2023-12-29T15:14:02;10.73;;;5.00;;
20229;SDS011;12195;55.790;37.572;2023-12-29T15:16:36;11.25;;;6.08;;
20229;SDS011;12195;55.790;37.572;2023-12-29T15:19:12;9.60;;;6.35;;
20229;SDS011;12195;55.790;37.572;2023-12-29T15:21:46;11.83;;;6.08;;
20229;SDS011;12195;55.790;37.572;2023-12-29T15:24:19;9.55;;;6.00;;
20229;SDS011;12195;55.790;37.572;2023-12-29T15:26:52;11.10;;;5.85;;
20229;SDS011;12195;55.790;37.572;2023-12-29T15:29:27;13.33;;;5.93;;
20229;SDS011;12195;55.790;37.572;2023-12-29T15:32:08;13.28;;;6.15;;
20229;SDS011;12195;55.790;37.572;2023-12-29T15:34:42;11.40;;;6.33;;
20229;SDS011;12195;55.790;37.572;2023-12-29T15:37:16;5.57;;;3.60;;
20229;SDS011;12195;55.790;37.572;2023-12-29T15:39:52;10.25;;;5.45;;
20229;SDS011;12195;55.790;37.572;2023-12-29T15:42:27;9.13;;;5.65;;
20229;SDS011;12195;55.790;37.572;2023-12-29T15:45:02;8.83;;;4.35;;
20229;SDS011;12195;55.790;37.572;2023-12-29T15:47:37;10.28;;;4.90;;
20229;SDS011;12195;55.790;37.572;2023-12-29T15:50:11;8.88;;;5.35;;
20229;SDS011;12195;55.790;37.572;2023-12-29T15:55:20;8.15;;;3.27;;
20229;SDS011;12195;55.790;37.572;2023-12-29T15:57:54;6.25;;;3.02;;
20229;SDS011;12195;55.790;37.572;2023-12-29T16:00:28;7.80;;;4.40;;
20229;SDS011;12195;55.790;37.572;2023-12-29T16:03:01;4.93;;;3.10;;
20229;SDS011;12195;55.790;37.572;2023-12-29T16:05:35;9.20;;;5.20;;